Accueil
METAR-TAF:

METAR-TAF

Aéroports :

Aéroport international de Nouakchott-Oumtounsy

Nouakchott, Mauritanie

latitude: 18-18-36N, longitude: 015-58-11W, altitude: 3 m

Observation

Le bulletin a été fait il y a 44 minutes, à 22:30 UTC
Vent 9 kt de nord/nord-ouest
Température 21°C
Humidité 78%
Pression 1015 hPa
Visibilité: 8000 m

METAR: GQNO 032230Z 34009KT 8000 NSC 21/17 Q1015 NOSIG

Heure: 23:14 (23:14 UTC)

Prévision

Le bulletin a été fait il y a 6 heures et 14 minutes, à 17:00 UTC
Prévision valable du 03 à 18 UTC au 04 à 24 UTC
Vent 12 kt de nord
Visibilité: 8000 m

TAF: GQNO 031700Z 0318/0424 36012KT 8000 NSC

Observations et prévisions météorologiques de plus de 4000 aéroports (messages METAR et TAF).

Les stations disponibles sont représentées par des disques jaunes et rouges sur la carte.

Passer la souris dessus pour voir le nom de la station.

Cliquer dessus pour voir les observations et prévisions météorologiques.

Pour changer de carte: cliquez sur les boutons verts avec une croix noire pour zoomer, sur le bouton vert avec un tiret pour effectuer un zoom arrière, ou sur les flèches vertes pour les cartes adjacentes.


METAR-TAF: